sensor_id;sensor_type;location;lat;lon;timestamp;pressure;altitude;pressure_sealevel;temperature;humidity
11114;BME280;5610;52.154;9.198;2023-04-29T00:01:59;100182.88;;;13.72;100.00
11114;BME280;5610;52.154;9.198;2023-04-29T00:04:44;100181.88;;;13.73;100.00
11114;BME280;5610;52.154;9.198;2023-04-29T00:07:29;100179.09;;;13.74;100.00
11114;BME280;5610;52.154;9.198;2023-04-29T00:10:16;100185.06;;;13.78;100.00
11114;BME280;5610;52.154;9.198;2023-04-29T00:13:02;100187.59;;;13.80;100.00
11114;BME280;5610;52.154;9.198;2023-04-29T00:15:47;100189.56;;;13.66;100.00
11114;BME280;5610;52.154;9.198;2023-04-29T00:18:33;100195.44;;;13.60;100.00
11114;BME280;5610;52.154;9.198;2023-04-29T00:21:19;100196.38;;;13.70;100.00
11114;BME280;5610;52.154;9.198;2023-04-29T00:24:05;100190.06;;;13.71;100.00
11114;BME280;5610;52.154;9.198;2023-04-29T00:26:51;100196.38;;;13.70;100.00
11114;BME280;5610;52.154;9.198;2023-04-29T00:29:37;100198.13;;;13.60;100.00
11114;BME280;5610;52.154;9.198;2023-04-29T00:32:22;100196.31;;;13.61;100.00
11114;BME280;5610;52.154;9.198;2023-04-29T00:35:08;100195.91;;;13.65;100.00
11114;BME280;5610;52.154;9.198;2023-04-29T00:37:53;100195.78;;;13.67;100.00
11114;BME280;5610;52.154;9.198;2023-04-29T00:40:39;100204.91;;;13.64;100.00
11114;BME280;5610;52.154;9.198;2023-04-29T00:43:26;100206.75;;;13.64;100.00
11114;BME280;5610;52.154;9.198;2023-04-29T00:46:11;100213.06;;;13.52;100.00
11114;BME280;5610;52.154;9.198;2023-04-29T00:48:56;100221.25;;;13.50;100.00
11114;BME280;5610;52.154;9.198;2023-04-29T00:51:43;100229.75;;;13.55;100.00
11114;BME280;5610;52.154;9.198;2023-04-29T00:54:29;100220.88;;;13.55;100.00
11114;BME280;5610;52.154;9.198;2023-04-29T00:57:14;100220.03;;;13.54;100.00
11114;BME280;5610;52.154;9.198;2023-04-29T01:00:02;100220.88;;;13.55;100.00
11114;BME280;5610;52.154;9.198;2023-04-29T01:02:48;100229.03;;;13.42;100.00
11114;BME280;5610;52.154;9.198;2023-04-29T01:05:34;100225.03;;;13.48;100.00
11114;BME280;5610;52.154;9.198;2023-04-29T01:08:27;100222.34;;;13.36;100.00
11114;BME280;5610;52.154;9.198;2023-04-29T01:11:21;100224.31;;;13.34;100.00
11114;BME280;5610;52.154;9.198;2023-04-29T01:14:07;100227.69;;;13.36;100.00
11114;BME280;5610;52.154;9.198;2023-04-29T01:16:58;100232.69;;;13.30;100.00
11114;BME280;5610;52.154;9.198;2023-04-29T01:19:47;100240.34;;;13.23;100.00
11114;BME280;5610;52.154;9.198;2023-04-29T01:22:34;100236.69;;;13.24;100.00
11114;BME280;5610;52.154;9.198;2023-04-29T01:25:20;100244.31;;;13.17;100.00
11114;BME280;5610;52.154;9.198;2023-04-29T01:28:32;100241.31;;;13.11;100.00
11114;BME280;5610;52.154;9.198;2023-04-29T01:31:27;100252.47;;;13.16;100.00
11114;BME280;5610;52.154;9.198;2023-04-29T01:34:22;100254.69;;;13.22;100.00
11114;BME280;5610;52.154;9.198;2023-04-29T01:37:16;100248.88;;;13.28;100.00
11114;BME280;5610;52.154;9.198;2023-04-29T01:40:11;100247.16;;;13.27;100.00
11114;BME280;5610;52.154;9.198;2023-04-29T01:43:04;100253.31;;;13.16;100.00
11114;BME280;5610;52.154;9.198;2023-04-29T01:45:56;100256.13;;;13.15;100.00
11114;BME280;5610;52.154;9.198;2023-04-29T01:48:42;100267.44;;;13.18;100.00
11114;BME280;5610;52.154;9.198;2023-04-29T01:51:28;100262.84;;;13.21;100.00
11114;BME280;5610;52.154;9.198;2023-04-29T01:54:14;100255.91;;;13.18;100.00
11114;BME280;5610;52.154;9.198;2023-04-29T01:56:59;100260.91;;;13.23;100.00
11114;BME280;5610;52.154;9.198;2023-04-29T01:59:53;100265.84;;;13.16;100.00
11114;BME280;5610;52.154;9.198;2023-04-29T02:03:00;100274.66;;;13.29;100.00
11114;BME280;5610;52.154;9.198;2023-04-29T02:05:54;100272.22;;;13.26;100.00
11114;BME280;5610;52.154;9.198;2023-04-29T02:08:40;100277.94;;;13.22;100.00
11114;BME280;5610;52.154;9.198;2023-04-29T02:11:26;100278.78;;;13.22;100.00
11114;BME280;5610;52.154;9.198;2023-04-29T02:14:14;100281.22;;;13.25;100.00
11114;BME280;5610;52.154;9.198;2023-04-29T02:17:01;100285.19;;;13.19;100.00
11114;BME280;5610;52.154;9.198;2023-04-29T02:19:47;100294.09;;;13.20;100.00
11114;BME280;5610;52.154;9.198;2023-04-29T02:22:32;100290.28;;;13.11;100.00
11114;BME280;5610;52.154;9.198;2023-04-29T02:25:17;100301.84;;;13.12;100.00
11114;BME280;5610;52.154;9.198;2023-04-29T02:28:02;100301.34;;;13.07;100.00
11114;BME280;5610;52.154;9.198;2023-04-29T02:30:47;100299.25;;;12.99;100.00
11114;BME280;5610;52.154;9.198;2023-04-29T02:33:34;100310.44;;;12.93;100.00
11114;BME280;5610;52.154;9.198;2023-04-29T02:36:19;100310.53;;;12.91;100.00
11114;BME280;5610;52.154;9.198;2023-04-29T02:39:05;100316.38;;;12.97;100.00
11114;BME280;5610;52.154;9.198;2023-04-29T02:41:53;100312.72;;;12.86;100.00
11114;BME280;5610;52.154;9.198;2023-04-29T02:44:39;100319.03;;;12.85;100.00
11114;BME280;5610;52.154;9.198;2023-04-29T02:47:25;100313.91;;;12.82;100.00
11114;BME280;5610;52.154;9.198;2023-04-29T02:50:12;100323.34;;;12.75;100.00
11114;BME280;5610;52.154;9.198;2023-04-29T02:52:57;100322.03;;;12.81;100.00
11114;BME280;5610;52.154;9.198;2023-04-29T02:55:42;100329.59;;;12.76;100.00
11114;BME280;5610;52.154;9.198;2023-04-29T02:58:27;100324.56;;;12.71;100.00
11114;BME280;5610;52.154;9.198;2023-04-29T03:01:13;100329.19;;;12.69;100.00
11114;BME280;5610;52.154;9.198;2023-04-29T03:03:58;100331.97;;;12.68;100.00
11114;BME280;5610;52.154;9.198;2023-04-29T03:06:45;100336.44;;;12.67;100.00
11114;BME280;5610;52.154;9.198;2023-04-29T03:09:30;100328.56;;;12.65;100.00
11114;BME280;5610;52.154;9.198;2023-04-29T03:12:15;100334.25;;;12.61;100.00
11114;BME280;5610;52.154;9.198;2023-04-29T03:15:04;100331.56;;;12.61;100.00
11114;BME280;5610;52.154;9.198;2023-04-29T03:17:49;100337.56;;;12.64;100.00
11114;BME280;5610;52.154;9.198;2023-04-29T03:20:35;100337.03;;;12.59;100.00
11114;BME280;5610;52.154;9.198;2023-04-29T03:23:22;100344.78;;;12.51;100.00
11114;BME280;5610;52.154;9.198;2023-04-29T03:26:08;100351.94;;;12.51;100.00
11114;BME280;5610;52.154;9.198;2023-04-29T03:28:54;100352.47;;;12.56;100.00
11114;BME280;5610;52.154;9.198;2023-04-29T03:31:39;100352.78;;;12.51;100.00
11114;BME280;5610;52.154;9.198;2023-04-29T03:34:24;100352.72;;;12.40;100.00
11114;BME280;5610;52.154;9.198;2023-04-29T03:37:25;100362.09;;;12.46;100.00
11114;BME280;5610;52.154;9.198;2023-04-29T03:40:20;100369.16;;;12.47;100.00
11114;BME280;5610;52.154;9.198;2023-04-29T03:43:06;100369.78;;;12.50;100.00
11114;BME280;5610;52.154;9.198;2023-04-29T03:45:52;100362.47;;;12.41;100.00
11114;BME280;5610;52.154;9.198;2023-04-29T03:48:39;100370.88;;;12.48;100.00
11114;BME280;5610;52.154;9.198;2023-04-29T03:51:25;100366.72;;;12.44;100.00
11114;BME280;5610;52.154;9.198;2023-04-29T03:54:18;100374.41;;;12.48;100.00
11114;BME280;5610;52.154;9.198;2023-04-29T03:57:05;100374.75;;;12.44;100.00
11114;BME280;5610;52.154;9.198;2023-04-29T03:59:50;100380.19;;;12.42;100.00
11114;BME280;5610;52.154;9.198;2023-04-29T04:02:35;100390.66;;;12.45;100.00
11114;BME280;5610;52.154;9.198;2023-04-29T04:05:21;100393.69;;;12.41;100.00
11114;BME280;5610;52.154;9.198;2023-04-29T04:08:11;100392.19;;;12.36;100.00
11114;BME280;5610;52.154;9.198;2023-04-29T04:11:07;100404.81;;;12.34;100.00
11114;BME280;5610;52.154;9.198;2023-04-29T04:13:56;100414.31;;;12.26;100.00
11114;BME280;5610;52.154;9.198;2023-04-29T04:16:42;100420.13;;;12.20;100.00
11114;BME280;5610;52.154;9.198;2023-04-29T04:19:27;100417.97;;;12.25;100.00
11114;BME280;5610;52.154;9.198;2023-04-29T04:22:12;100424.81;;;12.29;100.00
11114;BME280;5610;52.154;9.198;2023-04-29T04:25:06;100421.69;;;12.35;100.00
11114;BME280;5610;52.154;9.198;2023-04-29T04:27:51;100427.03;;;12.35;100.00
11114;BME280;5610;52.154;9.198;2023-04-29T04:31:01;100428.94;;;12.33;100.00
11114;BME280;5610;52.154;9.198;2023-04-29T04:33:47;100437.97;;;12.19;100.00
11114;BME280;5610;52.154;9.198;2023-04-29T04:36:32;100434.19;;;12.34;100.00
11114;BME280;5610;52.154;9.198;2023-04-29T04:39:17;100445.63;;;12.36;100.00
11114;BME280;5610;52.154;9.198;2023-04-29T04:42:03;100442.22;;;12.34;100.00
11114;BME280;5610;52.154;9.198;2023-04-29T04:44:51;100466.69;;;12.28;100.00
11114;BME280;5610;52.154;9.198;2023-04-29T04:47:50;100459.53;;;12.29;100.00
11114;BME280;5610;52.154;9.198;2023-04-29T04:50:39;100460.69;;;12.25;100.00
11114;BME280;5610;52.154;9.198;2023-04-29T04:53:24;100476.66;;;12.26;100.00
11114;BME280;5610;52.154;9.198;2023-04-29T04:56:16;100474.91;;;12.38;100.00
11114;BME280;5610;52.154;9.198;2023-04-29T04:59:01;100479.19;;;12.41;100.00
11114;BME280;5610;52.154;9.198;2023-04-29T05:01:46;100485.03;;;12.46;100.00
11114;BME280;5610;52.154;9.198;2023-04-29T05:04:33;100492.63;;;12.52;100.00
11114;BME280;5610;52.154;9.198;2023-04-29T05:07:18;100494.31;;;12.53;100.00
11114;BME280;5610;52.154;9.198;2023-04-29T05:10:17;100497.84;;;12.53;100.00
11114;BME280;5610;52.154;9.198;2023-04-29T05:13:06;100497.97;;;12.52;100.00
11114;BME280;5610;52.154;9.198;2023-04-29T05:15:52;100498.38;;;12.58;100.00
11114;BME280;5610;52.154;9.198;2023-04-29T05:18:41;100501.78;;;12.60;100.00
11114;BME280;5610;52.154;9.198;2023-04-29T05:21:29;100507.97;;;12.61;100.00
11114;BME280;5610;52.154;9.198;2023-04-29T05:24:15;100506.06;;;12.63;100.00
11114;BME280;5610;52.154;9.198;2023-04-29T05:27:01;100508.94;;;12.60;100.00
11114;BME280;5610;52.154;9.198;2023-04-29T05:29:47;100508.09;;;12.59;100.00
11114;BME280;5610;52.154;9.198;2023-04-29T05:32:33;100514.66;;;12.55;100.00
11114;BME280;5610;52.154;9.198;2023-04-29T05:35:17;100519.88;;;12.57;100.00
11114;BME280;5610;52.154;9.198;2023-04-29T05:38:04;100529.59;;;12.58;100.00
11114;BME280;5610;52.154;9.198;2023-04-29T05:41:05;100528.56;;;12.48;100.00
11114;BME280;5610;52.154;9.198;2023-04-29T05:44:01;100531.13;;;12.36;100.00
11114;BME280;5610;52.154;9.198;2023-04-29T05:46:48;100529.84;;;12.29;100.00
11114;BME280;5610;52.154;9.198;2023-04-29T05:49:35;100541.38;;;12.17;100.00
11114;BME280;5610;52.154;9.198;2023-04-29T05:52:21;100545.44;;;12.23;100.00
11114;BME280;5610;52.154;9.198;2023-04-29T05:55:08;100545.88;;;12.17;100.00
11114;BME280;5610;52.154;9.198;2023-04-29T05:57:54;100557.63;;;12.14;100.00
11114;BME280;5610;52.154;9.198;2023-04-29T06:00:39;100555.91;;;12.00;100.00
11114;BME280;5610;52.154;9.198;2023-04-29T06:03:32;100564.56;;;12.04;100.00
11114;BME280;5610;52.154;9.198;2023-04-29T06:06:45;100574.28;;;12.05;100.00
11114;BME280;5610;52.154;9.198;2023-04-29T06:09:35;100572.25;;;12.08;100.00
11114;BME280;5610;52.154;9.198;2023-04-29T06:12:22;100572.16;;;12.10;100.00
11114;BME280;5610;52.154;9.198;2023-04-29T06:15:08;100579.31;;;12.09;100.00
11114;BME280;5610;52.154;9.198;2023-04-29T06:17:53;100582.00;;;12.22;100.00
11114;BME280;5610;52.154;9.198;2023-04-29T06:20:40;100587.34;;;12.22;100.00
11114;BME280;5610;52.154;9.198;2023-04-29T06:23:25;100595.47;;;12.33;100.00
11114;BME280;5610;52.154;9.198;2023-04-29T06:26:10;100598.53;;;12.40;100.00
11114;BME280;5610;52.154;9.198;2023-04-29T06:28:57;100593.84;;;12.44;100.00
11114;BME280;5610;52.154;9.198;2023-04-29T06:31:43;100614.69;;;12.51;100.00
11114;BME280;5610;52.154;9.198;2023-04-29T06:34:28;100609.34;;;12.51;100.00
11114;BME280;5610;52.154;9.198;2023-04-29T06:37:43;100611.81;;;12.42;100.00
11114;BME280;5610;52.154;9.198;2023-04-29T06:40:48;100619.41;;;12.48;100.00
11114;BME280;5610;52.154;9.198;2023-04-29T06:43:52;100614.06;;;12.48;100.00
11114;BME280;5610;52.154;9.198;2023-04-29T06:47:17;100627.00;;;12.28;100.00
11114;BME280;5610;52.154;9.198;2023-04-29T06:50:12;100634.56;;;12.22;100.00
11114;BME280;5610;52.154;9.198;2023-04-29T06:52:57;100643.56;;;12.33;100.00
11114;BME280;5610;52.154;9.198;2023-04-29T06:55:42;100643.78;;;12.43;100.00
11114;BME280;5610;52.154;9.198;2023-04-29T06:58:29;100650.41;;;12.37;100.00
11114;BME280;5610;52.154;9.198;2023-04-29T07:01:14;100660.66;;;12.44;100.00
11114;BME280;5610;52.154;9.198;2023-04-29T07:04:01;100667.06;;;12.54;100.00
11114;BME280;5610;52.154;9.198;2023-04-29T07:06:47;100671.56;;;12.53;100.00
11114;BME280;5610;52.154;9.198;2023-04-29T07:09:32;100676.84;;;12.55;100.00
11114;BME280;5610;52.154;9.198;2023-04-29T07:12:17;100685.78;;;12.54;100.00
11114;BME280;5610;52.154;9.198;2023-04-29T07:15:03;100689.50;;;12.38;100.00
11114;BME280;5610;52.154;9.198;2023-04-29T07:17:48;100693.03;;;12.39;100.00
11114;BME280;5610;52.154;9.198;2023-04-29T07:20:36;100704.06;;;12.34;100.00
11114;BME280;5610;52.154;9.198;2023-04-29T07:23:22;100705.50;;;12.13;100.00
11114;BME280;5610;52.154;9.198;2023-04-29T07:26:08;100707.25;;;12.27;100.00
11114;BME280;5610;52.154;9.198;2023-04-29T07:28:54;100715.78;;;12.19;100.00
11114;BME280;5610;52.154;9.198;2023-04-29T07:31:41;100727.56;;;12.29;100.00
11114;BME280;5610;52.154;9.198;2023-04-29T07:34:26;100727.78;;;12.39;100.00
11114;BME280;5610;52.154;9.198;2023-04-29T07:37:13;100729.31;;;12.56;100.00
11114;BME280;5610;52.154;9.198;2023-04-29T07:39:59;100739.94;;;12.70;100.00
11114;BME280;5610;52.154;9.198;2023-04-29T07:42:44;100742.59;;;12.70;100.00
11114;BME280;5610;52.154;9.198;2023-04-29T07:45:30;100746.31;;;12.68;100.00
11114;BME280;5610;52.154;9.198;2023-04-29T07:48:15;100749.00;;;12.80;100.00
11114;BME280;5610;52.154;9.198;2023-04-29T07:51:00;100750.09;;;12.90;100.00
11114;BME280;5610;52.154;9.198;2023-04-29T07:53:47;100748.78;;;12.96;100.00
11114;BME280;5610;52.154;9.198;2023-04-29T07:56:33;100764.00;;;13.08;100.00
11114;BME280;5610;52.154;9.198;2023-04-29T07:59:18;100757.72;;;13.22;100.00
11114;BME280;5610;52.154;9.198;2023-04-29T08:02:04;100762.91;;;13.49;100.00
11114;BME280;5610;52.154;9.198;2023-04-29T08:04:50;100765.31;;;13.78;100.00
11114;BME280;5610;52.154;9.198;2023-04-29T08:07:37;100763.72;;;13.75;100.00
11114;BME280;5610;52.154;9.198;2023-04-29T08:10:23;100773.44;;;14.13;100.00
11114;BME280;5610;52.154;9.198;2023-04-29T08:13:10;100775.44;;;14.46;100.00
11114;BME280;5610;52.154;9.198;2023-04-29T08:15:56;100767.22;;;14.60;100.00
11114;BME280;5610;52.154;9.198;2023-04-29T08:18:41;100775.53;;;14.68;100.00
11114;BME280;5610;52.154;9.198;2023-04-29T08:21:27;100780.63;;;14.71;100.00
11114;BME280;5610;52.154;9.198;2023-04-29T08:24:12;100776.94;;;14.96;100.00
11114;BME280;5610;52.154;9.198;2023-04-29T08:26:59;100775.84;;;15.55;100.00
11114;BME280;5610;52.154;9.198;2023-04-29T08:29:44;100779.81;;;16.16;100.00
11114;BME280;5610;52.154;9.198;2023-04-29T08:32:29;100785.16;;;16.60;100.00
11114;BME280;5610;52.154;9.198;2023-04-29T08:35:15;100786.66;;;16.85;100.00
11114;BME280;5610;52.154;9.198;2023-04-29T08:38:00;100787.03;;;17.01;100.00
11114;BME280;5610;52.154;9.198;2023-04-29T08:40:45;100798.09;;;17.28;100.00
11114;BME280;5610;52.154;9.198;2023-04-29T08:43:34;100803.50;;;17.69;100.00
11114;BME280;5610;52.154;9.198;2023-04-29T08:46:21;100807.09;;;17.69;100.00
11114;BME280;5610;52.154;9.198;2023-04-29T08:49:08;100803.91;;;17.85;100.00
11114;BME280;5610;52.154;9.198;2023-04-29T08:51:53;100813.84;;;18.04;100.00
11114;BME280;5610;52.154;9.198;2023-04-29T08:54:39;100824.78;;;18.02;100.00
11114;BME280;5610;52.154;9.198;2023-04-29T08:57:25;100825.72;;;17.82;100.00
11114;BME280;5610;52.154;9.198;2023-04-29T09:00:13;100835.66;;;17.81;100.00
11114;BME280;5610;52.154;9.198;2023-04-29T09:03:00;100839.34;;;17.60;100.00
11114;BME280;5610;52.154;9.198;2023-04-29T09:05:52;100836.78;;;17.48;100.00
11114;BME280;5610;52.154;9.198;2023-04-29T09:08:38;100843.25;;;17.46;100.00
11114;BME280;5610;52.154;9.198;2023-04-29T09:11:25;100845.66;;;17.18;100.00
11114;BME280;5610;52.154;9.198;2023-04-29T09:14:12;100836.91;;;17.05;100.00
11114;BME280;5610;52.154;9.198;2023-04-29T09:16:59;100844.25;;;17.45;100.00
11114;BME280;5610;52.154;9.198;2023-04-29T09:19:45;100841.72;;;18.04;100.00
11114;BME280;5610;52.154;9.198;2023-04-29T09:22:46;100839.97;;;18.82;100.00
11114;BME280;5610;52.154;9.198;2023-04-29T09:25:31;100847.66;;;19.53;96.50
11114;BME280;5610;52.154;9.198;2023-04-29T09:28:17;100836.06;;;20.08;88.86
11114;BME280;5610;52.154;9.198;2023-04-29T09:31:03;100839.25;;;20.48;80.88
11114;BME280;5610;52.154;9.198;2023-04-29T09:33:52;100839.25;;;19.93;82.20
11114;BME280;5610;52.154;9.198;2023-04-29T09:36:39;100846.09;;;20.43;81.18
11114;BME280;5610;52.154;9.198;2023-04-29T09:39:25;100841.00;;;20.40;78.95
11114;BME280;5610;52.154;9.198;2023-04-29T09:42:10;100841.28;;;20.37;76.28
11114;BME280;5610;52.154;9.198;2023-04-29T09:44:55;100840.72;;;20.96;74.34
11114;BME280;5610;52.154;9.198;2023-04-29T09:47:41;100839.94;;;20.50;72.15
11114;BME280;5610;52.154;9.198;2023-04-29T09:50:27;100851.56;;;19.78;77.57
11114;BME280;5610;52.154;9.198;2023-04-29T09:53:27;100852.31;;;19.70;81.77
11114;BME280;5610;52.154;9.198;2023-04-29T09:56:12;100853.97;;;19.34;78.67
11114;BME280;5610;52.154;9.198;2023-04-29T09:59:06;100859.69;;;19.31;77.04
11114;BME280;5610;52.154;9.198;2023-04-29T10:01:53;100864.28;;;18.82;80.38
11114;BME280;5610;52.154;9.198;2023-04-29T10:04:40;100857.56;;;17.98;84.44
11114;BME280;5610;52.154;9.198;2023-04-29T10:07:27;100864.22;;;16.80;94.28
11114;BME280;5610;52.154;9.198;2023-04-29T10:10:13;100870.44;;;16.37;99.63
11114;BME280;5610;52.154;9.198;2023-04-29T10:12:59;100872.69;;;15.98;100.00
11114;BME280;5610;52.154;9.198;2023-04-29T10:15:51;100883.47;;;15.76;100.00
11114;BME280;5610;52.154;9.198;2023-04-29T10:18:40;100881.84;;;15.51;100.00
11114;BME280;5610;52.154;9.198;2023-04-29T10:21:27;100884.63;;;15.49;100.00
11114;BME280;5610;52.154;9.198;2023-04-29T10:24:16;100893.44;;;15.51;100.00
11114;BME280;5610;52.154;9.198;2023-04-29T10:27:01;100891.13;;;15.58;100.00
11114;BME280;5610;52.154;9.198;2023-04-29T10:29:51;100896.16;;;15.74;100.00
11114;BME280;5610;52.154;9.198;2023-04-29T10:32:37;100892.84;;;15.70;100.00
11114;BME280;5610;52.154;9.198;2023-04-29T10:35:24;100897.56;;;15.44;100.00
11114;BME280;5610;52.154;9.198;2023-04-29T10:38:17;100900.31;;;15.78;100.00
11114;BME280;5610;52.154;9.198;2023-04-29T10:41:14;100908.50;;;15.76;100.00
11114;BME280;5610;52.154;9.198;2023-04-29T10:44:01;100902.03;;;16.01;100.00
11114;BME280;5610;52.154;9.198;2023-04-29T10:46:47;100902.13;;;16.00;100.00
11114;BME280;5610;52.154;9.198;2023-04-29T10:49:33;100896.28;;;16.06;100.00
11114;BME280;5610;52.154;9.198;2023-04-29T10:52:18;100900.44;;;16.21;100.00
11114;BME280;5610;52.154;9.198;2023-04-29T10:55:04;100891.56;;;16.53;100.00
11114;BME280;5610;52.154;9.198;2023-04-29T10:57:53;100892.81;;;17.13;100.00
11114;BME280;5610;52.154;9.198;2023-04-29T11:00:39;100892.69;;;17.77;98.71
11114;BME280;5610;52.154;9.198;2023-04-29T11:03:50;100894.69;;;18.84;89.20
11114;BME280;5610;52.154;9.198;2023-04-29T11:06:40;100885.34;;;21.10;72.95
11114;BME280;5610;52.154;9.198;2023-04-29T11:09:29;100892.88;;;23.76;60.56
11114;BME280;5610;52.154;9.198;2023-04-29T11:12:19;100888.63;;;25.44;55.24
11114;BME280;5610;52.154;9.198;2023-04-29T11:15:07;100876.72;;;25.07;52.32
11114;BME280;5610;52.154;9.198;2023-04-29T11:17:57;100888.22;;;23.93;54.54
11114;BME280;5610;52.154;9.198;2023-04-29T11:21:11;100881.66;;;23.39;55.32
11114;BME280;5610;52.154;9.198;2023-04-29T11:23:56;100888.78;;;22.83;57.02
11114;BME280;5610;52.154;9.198;2023-04-29T11:26:42;100885.88;;;21.83;56.62
11114;BME280;5610;52.154;9.198;2023-04-29T11:29:29;100890.78;;;20.92;58.63
11114;BME280;5610;52.154;9.198;2023-04-29T11:32:19;100887.47;;;21.42;59.80
11114;BME280;5610;52.154;9.198;2023-04-29T11:35:08;100876.38;;;26.07;50.80
11114;BME280;5610;52.154;9.198;2023-04-29T11:37:54;100882.88;;;26.72;45.71
11114;BME280;5610;52.154;9.198;2023-04-29T11:40:41;100886.66;;;25.23;46.41
11114;BME280;5610;52.154;9.198;2023-04-29T11:43:26;100901.06;;;23.03;50.70
11114;BME280;5610;52.154;9.198;2023-04-29T11:46:12;100902.31;;;21.30;55.38
11114;BME280;5610;52.154;9.198;2023-04-29T11:49:00;100910.75;;;19.91;59.21
11114;BME280;5610;52.154;9.198;2023-04-29T11:51:46;100916.84;;;18.78;63.92
11114;BME280;5610;52.154;9.198;2023-04-29T11:54:31;100922.47;;;18.06;69.57
11114;BME280;5610;52.154;9.198;2023-04-29T11:57:16;100921.25;;;17.47;77.68
11114;BME280;5610;52.154;9.198;2023-04-29T12:00:02;100930.31;;;17.25;78.39
11114;BME280;5610;52.154;9.198;2023-04-29T12:02:51;100927.50;;;17.06;83.04
11114;BME280;5610;52.154;9.198;2023-04-29T12:05:38;100927.53;;;16.95;82.94
11114;BME280;5610;52.154;9.198;2023-04-29T12:08:25;100933.75;;;16.95;85.15
11114;BME280;5610;52.154;9.198;2023-04-29T12:11:11;100937.31;;;16.96;85.81
11114;BME280;5610;52.154;9.198;2023-04-29T12:13:56;100937.41;;;17.06;87.24
11114;BME280;5610;52.154;9.198;2023-04-29T12:16:45;100934.06;;;17.13;87.20
11114;BME280;5610;52.154;9.198;2023-04-29T12:19:31;100936.31;;;17.29;86.63
11114;BME280;5610;52.154;9.198;2023-04-29T12:22:18;100938.16;;;17.49;83.48
11114;BME280;5610;52.154;9.198;2023-04-29T12:25:04;100935.78;;;17.56;84.76
11114;BME280;5610;52.154;9.198;2023-04-29T12:27:50;100936.44;;;17.69;84.59
11114;BME280;5610;52.154;9.198;2023-04-29T12:30:36;100945.28;;;17.71;84.36
11114;BME280;5610;52.154;9.198;2023-04-29T12:33:22;100940.59;;;17.73;82.03
11114;BME280;5610;52.154;9.198;2023-04-29T12:36:15;100940.34;;;17.76;81.91
11114;BME280;5610;52.154;9.198;2023-04-29T12:39:04;100935.34;;;17.72;81.28
11114;BME280;5610;52.154;9.198;2023-04-29T12:41:54;100938.22;;;17.59;80.89
11114;BME280;5610;52.154;9.198;2023-04-29T12:44:40;100946.69;;;17.75;77.46
11114;BME280;5610;52.154;9.198;2023-04-29T12:47:30;100943.94;;;17.87;77.74
11114;BME280;5610;52.154;9.198;2023-04-29T12:50:16;100943.00;;;17.97;73.71
11114;BME280;5610;52.154;9.198;2023-04-29T12:53:02;100945.44;;;18.10;74.06
11114;BME280;5610;52.154;9.198;2023-04-29T12:55:49;100941.84;;;18.30;72.96
11114;BME280;5610;52.154;9.198;2023-04-29T12:58:37;100939.03;;;18.42;74.97
11114;BME280;5610;52.154;9.198;2023-04-29T13:01:22;100945.84;;;18.36;74.24
11114;BME280;5610;52.154;9.198;2023-04-29T13:04:08;100945.28;;;18.32;75.52
11114;BME280;5610;52.154;9.198;2023-04-29T13:06:55;100950.56;;;18.53;72.86
11114;BME280;5610;52.154;9.198;2023-04-29T13:09:43;100949.34;;;18.67;73.05
11114;BME280;5610;52.154;9.198;2023-04-29T13:12:30;100949.56;;;18.45;69.95
11114;BME280;5610;52.154;9.198;2023-04-29T13:15:15;100949.69;;;18.33;70.63
11114;BME280;5610;52.154;9.198;2023-04-29T13:18:00;100951.63;;;18.31;68.15
11114;BME280;5610;52.154;9.198;2023-04-29T13:20:46;100948.47;;;18.17;68.91
11114;BME280;5610;52.154;9.198;2023-04-29T13:23:31;100952.06;;;17.96;69.59
11114;BME280;5610;52.154;9.198;2023-04-29T13:26:16;100951.69;;;17.80;72.69
11114;BME280;5610;52.154;9.198;2023-04-29T13:29:02;100958.97;;;17.68;75.07
11114;BME280;5610;52.154;9.198;2023-04-29T13:31:47;100962.00;;;17.54;77.68
11114;BME280;5610;52.154;9.198;2023-04-29T13:34:32;100954.41;;;17.06;79.27
11114;BME280;5610;52.154;9.198;2023-04-29T13:37:18;100960.94;;;16.92;78.90
11114;BME280;5610;52.154;9.198;2023-04-29T13:40:05;100964.66;;;16.58;80.48
11114;BME280;5610;52.154;9.198;2023-04-29T13:42:50;100968.34;;;16.45;79.77
11114;BME280;5610;52.154;9.198;2023-04-29T13:45:37;100968.75;;;16.30;78.37
11114;BME280;5610;52.154;9.198;2023-04-29T13:48:23;100964.22;;;16.30;78.71
11114;BME280;5610;52.154;9.198;2023-04-29T13:51:08;100971.78;;;16.25;82.17
11114;BME280;5610;52.154;9.198;2023-04-29T13:53:53;100971.66;;;16.38;80.27
11114;BME280;5610;52.154;9.198;2023-04-29T13:56:39;100975.78;;;16.75;78.62
11114;BME280;5610;52.154;9.198;2023-04-29T13:59:24;100966.09;;;17.16;78.47
11114;BME280;5610;52.154;9.198;2023-04-29T14:02:11;100972.41;;;17.26;76.02
11114;BME280;5610;52.154;9.198;2023-04-29T14:04:56;100967.97;;;17.37;74.18
11114;BME280;5610;52.154;9.198;2023-04-29T14:07:42;100973.75;;;17.53;74.26
11114;BME280;5610;52.154;9.198;2023-04-29T14:10:27;100973.03;;;17.30;77.19
11114;BME280;5610;52.154;9.198;2023-04-29T14:13:12;100972.72;;;17.12;75.98
11114;BME280;5610;52.154;9.198;2023-04-29T14:15:57;100976.97;;;16.94;78.28
11114;BME280;5610;52.154;9.198;2023-04-29T14:18:46;100980.06;;;16.78;79.74
11114;BME280;5610;52.154;9.198;2023-04-29T14:21:31;100980.72;;;16.70;82.82
11114;BME280;5610;52.154;9.198;2023-04-29T14:24:16;100977.63;;;16.64;83.81
11114;BME280;5610;52.154;9.198;2023-04-29T14:27:02;100974.94;;;16.75;81.91
11114;BME280;5610;52.154;9.198;2023-04-29T14:29:47;100973.00;;;17.09;83.33
11114;BME280;5610;52.154;9.198;2023-04-29T14:32:32;100988.56;;;17.58;82.67
11114;BME280;5610;52.154;9.198;2023-04-29T14:35:19;100983.47;;;18.68;78.35
11114;BME280;5610;52.154;9.198;2023-04-29T14:38:04;100982.78;;;19.72;68.76
11114;BME280;5610;52.154;9.198;2023-04-29T14:40:49;100977.25;;;20.58;62.10